createdAt,value
2023-04-08T00:01:34.457Z,6.60
2023-04-08T00:04:03.402Z,6.60
2023-04-08T00:06:33.346Z,6.60
2023-04-08T00:09:01.882Z,6.60
2023-04-08T00:11:30.626Z,6.50
2023-04-08T00:13:59.116Z,6.50
2023-04-08T00:16:27.663Z,6.50
2023-04-08T00:18:56.633Z,6.50
2023-04-08T00:21:25.239Z,6.50
2023-04-08T00:23:55.065Z,6.50
2023-04-08T00:26:23.540Z,6.50
2023-04-08T00:28:52.169Z,6.30
2023-04-08T00:31:20.871Z,6.10
2023-04-08T00:33:49.394Z,6.10
2023-04-08T00:36:17.941Z,6.30
2023-04-08T00:38:46.500Z,6.30
2023-04-08T00:41:16.476Z,6.30
2023-04-08T00:43:44.971Z,6.30
2023-04-08T00:46:13.751Z,6.30
2023-04-08T00:48:42.319Z,6.40
2023-04-08T00:51:11.189Z,6.40
2023-04-08T00:53:39.598Z,6.40
2023-04-08T00:56:08.051Z,6.40
2023-04-08T00:58:38.084Z,6.50
2023-04-08T01:01:11.300Z,6.50
2023-04-08T01:03:46.656Z,6.40
2023-04-08T01:06:20.920Z,6.40
2023-04-08T01:08:50.020Z,6.40
2023-04-08T01:11:19.999Z,6.30
2023-04-08T01:13:50.864Z,6.20
2023-04-08T01:16:19.828Z,6.00
2023-04-08T01:18:49.472Z,6.20
2023-04-08T01:21:18.727Z,6.20
2023-04-08T01:23:54.635Z,6.20
2023-04-08T01:26:26.769Z,6.30
2023-04-08T01:28:57.598Z,6.30
2023-04-08T01:31:26.987Z,6.30
2023-04-08T01:33:56.253Z,6.30
2023-04-08T01:36:25.752Z,6.30
2023-04-08T01:38:54.336Z,6.20
2023-04-08T01:41:24.249Z,6.20
2023-04-08T01:43:53.443Z,6.20
2023-04-08T01:46:22.248Z,6.20
2023-04-08T01:48:51.743Z,6.20
2023-04-08T01:51:21.361Z,6.20
2023-04-08T01:53:49.831Z,6.30
2023-04-08T01:56:18.613Z,6.30
2023-04-08T01:58:52.820Z,6.30
2023-04-08T02:01:23.725Z,6.40
2023-04-08T02:03:53.187Z,6.40
2023-04-08T02:06:21.750Z,6.50
2023-04-08T02:08:50.581Z,6.40
2023-04-08T02:11:19.201Z,6.40
2023-04-08T02:13:49.098Z,6.40
2023-04-08T02:16:21.104Z,6.40
2023-04-08T02:18:57.082Z,6.40
2023-04-08T02:21:32.995Z,6.40
2023-04-08T02:24:04.857Z,6.40
2023-04-08T02:26:35.248Z,6.40
2023-04-08T02:29:05.916Z,6.50
2023-04-08T02:31:35.507Z,6.50
2023-04-08T02:34:04.200Z,6.50
2023-04-08T02:36:33.537Z,6.50
2023-04-08T02:39:01.981Z,6.50
2023-04-08T02:41:30.812Z,6.50
2023-04-08T02:43:59.264Z,6.50
2023-04-08T02:46:29.180Z,6.40
2023-04-08T02:48:57.702Z,6.50
2023-04-08T02:51:26.295Z,6.50
2023-04-08T02:53:55.411Z,6.50
2023-04-08T02:56:23.863Z,6.50
2023-04-08T02:58:52.356Z,6.50
2023-04-08T03:01:21.009Z,6.50
2023-04-08T03:03:50.926Z,6.40
2023-04-08T03:06:19.631Z,6.40
2023-04-08T03:08:48.214Z,6.40
2023-04-08T03:11:16.792Z,6.40
2023-04-08T03:13:46.683Z,6.40
2023-04-08T03:16:15.276Z,6.50
2023-04-08T03:18:43.768Z,6.40
2023-04-08T03:21:13.568Z,6.20
2023-04-08T03:23:41.989Z,6.30
2023-04-08T03:26:10.451Z,6.30
2023-04-08T03:28:38.984Z,6.40
2023-04-08T03:31:07.552Z,6.40
2023-04-08T03:33:36.017Z,6.40
2023-04-08T03:36:04.603Z,6.50
2023-04-08T03:38:34.445Z,6.50
2023-04-08T03:41:02.971Z,6.50
2023-04-08T03:43:32.760Z,6.60
2023-04-08T03:46:01.299Z,6.60
2023-04-08T03:48:29.767Z,6.50
2023-04-08T03:50:58.191Z,6.40
2023-04-08T03:53:28.107Z,6.40
2023-04-08T03:55:58.058Z,6.40
2023-04-08T03:58:26.516Z,6.40
2023-04-08T04:00:55.453Z,6.40
2023-04-08T04:03:24.006Z,6.40
2023-04-08T04:05:52.616Z,6.40
2023-04-08T04:08:21.210Z,6.40
2023-04-08T04:10:49.787Z,6.40
2023-04-08T04:13:19.791Z,6.40
2023-04-08T04:15:48.254Z,6.50
2023-04-08T04:18:16.739Z,6.40
2023-04-08T04:20:45.384Z,6.50
2023-04-08T04:23:13.865Z,6.50
2023-04-08T04:25:42.900Z,6.50
2023-04-08T04:28:11.375Z,6.60
2023-04-08T04:30:41.552Z,6.60
2023-04-08T04:33:09.960Z,6.60
2023-04-08T04:35:38.457Z,6.60
2023-04-08T04:38:10.727Z,6.60
2023-04-08T04:40:39.373Z,6.60
2023-04-08T04:43:07.761Z,6.50
2023-04-08T04:45:36.346Z,6.50
2023-04-08T04:48:06.461Z,6.50
2023-04-08T04:50:35.008Z,6.50
2023-04-08T04:53:03.392Z,6.40
2023-04-08T04:55:32.142Z,6.40
2023-04-08T04:58:00.569Z,6.40
2023-04-08T05:00:29.018Z,6.40
2023-04-08T05:02:57.702Z,6.50
2023-04-08T05:05:27.708Z,6.50
2023-04-08T05:07:56.190Z,6.50
2023-04-08T05:10:24.718Z,6.50
2023-04-08T05:12:53.180Z,6.50
2023-04-08T05:15:21.740Z,6.50
2023-04-08T05:17:50.205Z,6.60
2023-04-08T05:20:18.748Z,6.60
2023-04-08T05:22:48.560Z,6.60
2023-04-08T05:25:17.355Z,6.60
2023-04-08T05:27:46.817Z,6.70
2023-04-08T05:30:16.264Z,6.60
2023-04-08T05:32:44.794Z,6.60
2023-04-08T05:35:13.245Z,6.60
2023-04-08T05:37:41.763Z,6.60
2023-04-08T05:40:12.871Z,6.60
2023-04-08T05:42:42.421Z,6.60
2023-04-08T05:45:11.686Z,6.60
2023-04-08T05:47:40.337Z,6.60
2023-04-08T05:50:09.899Z,6.60
2023-04-08T05:52:38.308Z,6.60
2023-04-08T05:55:07.843Z,6.60
2023-04-08T05:57:37.637Z,6.60
2023-04-08T06:00:08.237Z,6.70
2023-04-08T06:02:37.649Z,6.80
2023-04-08T06:05:07.146Z,6.80
2023-04-08T06:07:35.761Z,6.70
2023-04-08T06:10:05.268Z,6.70
2023-04-08T06:12:38.667Z,6.70
2023-04-08T06:15:08.367Z,6.70
2023-04-08T06:17:37.793Z,6.80
2023-04-08T06:20:09.272Z,6.70
2023-04-08T06:22:38.020Z,6.70
2023-04-08T06:25:07.475Z,6.80
2023-04-08T06:27:35.904Z,6.80
2023-04-08T06:30:06.422Z,6.80
2023-04-08T06:32:34.872Z,6.70
2023-04-08T06:35:03.548Z,6.60
2023-04-08T06:37:31.977Z,6.50
2023-04-08T06:40:00.411Z,6.50
2023-04-08T06:42:28.835Z,6.40
2023-04-08T06:44:58.152Z,6.40
2023-04-08T06:47:28.019Z,6.40
2023-04-08T06:49:56.452Z,6.30
2023-04-08T06:52:25.009Z,6.20
2023-04-08T06:54:53.540Z,6.30
2023-04-08T06:57:21.976Z,6.30
2023-04-08T06:59:50.388Z,6.30
2023-04-08T07:02:18.915Z,6.40
2023-04-08T07:04:48.734Z,6.50
2023-04-08T07:07:17.302Z,6.50
2023-04-08T07:09:46.854Z,6.40
2023-04-08T07:12:15.650Z,6.40
2023-04-08T07:14:44.111Z,6.40
2023-04-08T07:17:12.589Z,6.50
2023-04-08T07:19:41.097Z,6.40
2023-04-08T07:22:10.912Z,6.40
2023-04-08T07:24:39.364Z,6.50
2023-04-08T07:27:07.768Z,6.50
2023-04-08T07:29:36.241Z,6.60
2023-04-08T07:32:04.794Z,6.60
2023-04-08T07:34:33.313Z,6.60
2023-04-08T07:37:01.801Z,6.70
2023-04-08T07:39:31.633Z,6.70
2023-04-08T07:41:59.983Z,6.80
2023-04-08T07:44:28.440Z,6.80
2023-04-08T07:46:56.854Z,6.80
2023-04-08T07:49:25.596Z,6.90
2023-04-08T07:51:54.244Z,6.80
2023-04-08T07:54:22.894Z,6.80
2023-04-08T07:56:52.729Z,6.70
2023-04-08T07:59:21.376Z,6.80
2023-04-08T08:01:49.822Z,6.80
2023-04-08T08:04:18.479Z,6.80
2023-04-08T08:06:48.020Z,6.90
2023-04-08T08:09:16.382Z,6.80
2023-04-08T08:11:44.855Z,7.00
2023-04-08T08:14:15.829Z,6.90
2023-04-08T08:16:44.693Z,7.00
2023-04-08T08:19:13.994Z,7.10
2023-04-08T08:21:42.567Z,7.10
2023-04-08T08:24:11.384Z,7.10
2023-04-08T08:26:40.555Z,7.10
2023-04-08T08:29:09.144Z,7.00
2023-04-08T08:31:39.001Z,6.90
2023-04-08T08:34:07.457Z,6.90
2023-04-08T08:36:36.326Z,7.00
2023-04-08T08:39:04.887Z,7.00
2023-04-08T08:41:36.548Z,7.00
2023-04-08T08:44:07.432Z,7.10
2023-04-08T08:46:36.254Z,7.10
2023-04-08T08:49:06.088Z,7.10
2023-04-08T08:51:34.774Z,7.10
2023-04-08T08:54:04.257Z,7.10
2023-04-08T08:56:34.634Z,7.20
2023-04-08T08:59:03.127Z,7.20
2023-04-08T09:01:33.415Z,7.20
2023-04-08T09:04:13.236Z,7.10
2023-04-08T09:06:41.997Z,7.10
2023-04-08T09:09:13.143Z,7.20
2023-04-08T09:11:42.634Z,7.30
2023-04-08T09:14:21.688Z,7.40
2023-04-08T09:16:50.730Z,7.40
2023-04-08T09:19:21.131Z,7.50
2023-04-08T09:22:06.444Z,7.50
2023-04-08T09:24:35.132Z,7.40
2023-04-08T09:27:03.661Z,7.40
2023-04-08T09:29:34.809Z,7.40
2023-04-08T09:32:05.334Z,7.40
2023-04-08T09:34:35.190Z,7.40
2023-04-08T09:37:03.533Z,7.40
2023-04-08T09:39:32.554Z,7.40
2023-04-08T09:42:02.184Z,7.50
2023-04-08T09:44:31.540Z,7.40
2023-04-08T09:47:09.797Z,7.50
2023-04-08T09:49:44.983Z,7.50
2023-04-08T09:52:17.892Z,7.50
2023-04-08T09:54:53.077Z,7.60
2023-04-08T09:57:26.743Z,7.80
2023-04-08T10:00:02.494Z,7.80
2023-04-08T10:02:32.982Z,7.80
2023-04-08T10:05:08.185Z,8.00
2023-04-08T10:07:37.228Z,7.90
2023-04-08T10:10:06.952Z,7.90
2023-04-08T10:12:36.377Z,7.90
2023-04-08T10:15:26.509Z,8.00
2023-04-08T10:17:55.194Z,8.00
2023-04-08T10:20:44.011Z,8.10
2023-04-08T10:23:14.077Z,8.00
2023-04-08T10:25:44.916Z,8.00
2023-04-08T10:28:27.163Z,8.00
2023-04-08T10:30:57.458Z,8.00
2023-04-08T10:33:34.570Z,7.90
2023-04-08T10:36:15.300Z,7.90
2023-04-08T10:38:44.209Z,7.90
2023-04-08T10:41:14.227Z,8.00
2023-04-08T10:43:42.837Z,8.00
2023-04-08T10:46:12.612Z,8.10
2023-04-08T10:48:41.159Z,8.10
2023-04-08T10:51:11.457Z,8.20
2023-04-08T10:53:40.573Z,8.30
2023-04-08T10:56:13.015Z,8.30
2023-04-08T10:58:49.934Z,8.30
2023-04-08T11:01:18.647Z,8.50
2023-04-08T11:03:47.271Z,8.50
2023-04-08T11:06:17.542Z,8.50
2023-04-08T11:08:46.217Z,8.60
2023-04-08T11:11:14.752Z,8.60
2023-04-08T11:13:52.922Z,8.70
2023-04-08T11:16:23.344Z,8.80
2023-04-08T11:18:52.613Z,8.80
2023-04-08T11:21:24.381Z,8.90
2023-04-08T11:23:54.069Z,9.00
2023-04-08T11:26:23.271Z,9.00
2023-04-08T11:28:52.427Z,9.00
2023-04-08T11:31:23.504Z,8.90
2023-04-08T11:33:55.138Z,8.90
2023-04-08T11:36:25.994Z,8.90
2023-04-08T11:38:55.809Z,8.90
2023-04-08T11:41:24.541Z,8.90
2023-04-08T11:43:54.188Z,8.90
2023-04-08T11:46:23.054Z,8.90
2023-04-08T11:49:06.651Z,8.80
2023-04-08T11:51:37.895Z,8.80
2023-04-08T11:54:07.674Z,8.80
2023-04-08T11:56:46.902Z,8.70
2023-04-08T11:59:15.614Z,8.70
2023-04-08T12:01:44.367Z,8.60
2023-04-08T12:04:13.071Z,8.60
2023-04-08T12:06:43.700Z,8.60
2023-04-08T12:09:12.720Z,8.60
2023-04-08T12:11:41.260Z,8.40
2023-04-08T12:14:09.789Z,8.40
2023-04-08T12:16:38.363Z,8.40
2023-04-08T12:19:07.166Z,8.50
2023-04-08T12:21:36.159Z,8.40
2023-04-08T12:24:06.314Z,8.30
2023-04-08T12:26:34.786Z,8.40
2023-04-08T12:29:03.526Z,8.40
2023-04-08T12:31:32.143Z,8.40
2023-04-08T12:34:00.761Z,8.40
2023-04-08T12:36:29.366Z,8.30
2023-04-08T12:38:57.928Z,8.30
2023-04-08T12:41:27.907Z,8.30
2023-04-08T12:43:56.377Z,8.20
2023-04-08T12:46:24.969Z,8.20
2023-04-08T12:49:03.380Z,8.30
2023-04-08T12:51:33.396Z,8.40
2023-04-08T12:54:03.181Z,8.40
2023-04-08T12:56:33.910Z,8.40
2023-04-08T12:59:02.478Z,8.50
2023-04-08T13:01:31.521Z,8.50
2023-04-08T13:04:00.370Z,8.60
2023-04-08T13:06:29.095Z,8.60
2023-04-08T13:08:57.693Z,8.70
2023-04-08T13:11:26.601Z,8.80
2023-04-08T13:13:56.405Z,8.80
2023-04-08T13:16:24.987Z,8.80
2023-04-08T13:18:53.646Z,8.80
2023-04-08T13:21:22.203Z,8.80
2023-04-08T13:23:50.761Z,8.70
2023-04-08T13:26:19.174Z,8.70
2023-04-08T13:28:56.488Z,8.80
2023-04-08T13:31:27.220Z,8.70
2023-04-08T13:33:58.171Z,8.60
2023-04-08T13:36:28.769Z,8.60
2023-04-08T13:38:57.684Z,8.60
2023-04-08T13:41:28.128Z,8.60
2023-04-08T13:43:56.645Z,8.50
2023-04-08T13:46:26.703Z,8.50
2023-04-08T13:48:55.285Z,8.50
2023-04-08T13:51:23.715Z,8.40
2023-04-08T13:53:52.283Z,8.20
2023-04-08T13:56:21.040Z,8.00
2023-04-08T13:58:56.345Z,8.00
2023-04-08T14:01:26.905Z,7.90
2023-04-08T14:03:55.676Z,7.80
2023-04-08T14:06:24.159Z,7.90
2023-04-08T14:08:52.893Z,7.90
2023-04-08T14:11:21.479Z,7.90
2023-04-08T14:13:49.918Z,7.90
2023-04-08T14:16:18.341Z,7.90
2023-04-08T14:18:48.276Z,8.00
2023-04-08T14:21:18.239Z,7.80
2023-04-08T14:23:46.809Z,7.80
2023-04-08T14:26:15.870Z,7.80
2023-04-08T14:28:44.328Z,7.80
2023-04-08T14:31:13.090Z,7.80
2023-04-08T14:33:42.236Z,7.70
2023-04-08T14:36:14.083Z,7.80
2023-04-08T14:38:42.689Z,7.80
2023-04-08T14:41:11.281Z,7.80
2023-04-08T14:43:39.697Z,7.70
2023-04-08T14:46:08.285Z,7.70
2023-04-08T14:48:36.720Z,7.70
2023-04-08T14:51:06.032Z,7.70
2023-04-08T14:53:36.420Z,7.80
2023-04-08T14:56:05.350Z,7.70
2023-04-08T14:58:33.755Z,7.80
2023-04-08T15:01:02.293Z,7.70
2023-04-08T15:03:30.917Z,7.80
2023-04-08T15:05:59.906Z,7.80
2023-04-08T15:08:28.398Z,7.80
2023-04-08T15:10:58.243Z,7.70
2023-04-08T15:13:26.732Z,7.70
2023-04-08T15:15:55.481Z,7.70
2023-04-08T15:18:24.050Z,7.70
2023-04-08T15:20:52.642Z,7.70
2023-04-08T15:23:22.066Z,7.70
2023-04-08T15:25:50.936Z,7.80
2023-04-08T15:28:20.825Z,7.80
2023-04-08T15:30:50.385Z,7.90
2023-04-08T15:33:19.263Z,7.90
2023-04-08T15:35:48.461Z,7.90
2023-04-08T15:38:17.575Z,7.90
2023-04-08T15:40:48.033Z,7.90
2023-04-08T15:43:16.804Z,7.90
2023-04-08T15:45:46.766Z,7.90
2023-04-08T15:48:15.492Z,7.90
2023-04-08T15:50:43.971Z,7.90
2023-04-08T15:53:12.447Z,7.90
2023-04-08T15:55:41.341Z,7.90
2023-04-08T15:58:09.818Z,7.90
2023-04-08T16:00:38.483Z,7.90
2023-04-08T16:03:12.022Z,7.80
2023-04-08T16:05:41.692Z,7.80
2023-04-08T16:08:10.288Z,7.80
2023-04-08T16:10:38.724Z,7.80
2023-04-08T16:13:07.596Z,7.70
2023-04-08T16:15:36.422Z,7.70
2023-04-08T16:18:06.378Z,7.70
2023-04-08T16:20:38.342Z,7.60
2023-04-08T16:23:06.831Z,7.60
2023-04-08T16:25:35.328Z,7.60
2023-04-08T16:28:03.808Z,7.60
2023-04-08T16:30:32.238Z,7.60
2023-04-08T16:33:00.784Z,7.60
2023-04-08T16:35:29.221Z,7.60
2023-04-08T16:37:59.527Z,7.60
2023-04-08T16:40:28.000Z,7.60
2023-04-08T16:42:56.826Z,7.50
2023-04-08T16:45:25.262Z,7.50
2023-04-08T16:47:53.749Z,7.50
2023-04-08T16:50:22.246Z,7.50
2023-04-08T16:52:50.655Z,7.40
2023-04-08T16:55:20.827Z,7.40
2023-04-08T16:57:49.317Z,7.40
2023-04-08T17:00:20.522Z,7.40
2023-04-08T17:02:49.843Z,7.40
2023-04-08T17:05:18.625Z,7.40
2023-04-08T17:07:47.120Z,7.40
2023-04-08T17:10:15.864Z,7.40
2023-04-08T17:12:45.916Z,7.40
2023-04-08T17:15:14.346Z,7.40
2023-04-08T17:17:42.813Z,7.20
2023-04-08T17:20:12.420Z,7.10
2023-04-08T17:22:40.961Z,7.20
2023-04-08T17:25:10.266Z,7.10
2023-04-08T17:27:38.655Z,7.20
2023-04-08T17:30:11.397Z,7.10
2023-04-08T17:32:40.129Z,7.10
2023-04-08T17:35:09.410Z,7.10
2023-04-08T17:37:37.847Z,7.00
2023-04-08T17:40:07.605Z,7.10
2023-04-08T17:42:36.215Z,7.10
2023-04-08T17:45:05.565Z,7.10
2023-04-08T17:47:35.601Z,7.00
2023-04-08T17:50:04.062Z,7.00
2023-04-08T17:52:32.510Z,7.00
2023-04-08T17:55:02.443Z,7.00
2023-04-08T17:57:30.889Z,7.00
2023-04-08T17:59:59.298Z,7.00
2023-04-08T18:02:29.043Z,6.90
2023-04-08T18:05:00.651Z,6.90
2023-04-08T18:07:29.131Z,6.90
2023-04-08T18:09:57.624Z,6.90
2023-04-08T18:12:27.025Z,6.90
2023-04-08T18:14:55.560Z,6.80
2023-04-08T18:17:24.017Z,6.80
2023-04-08T18:19:52.574Z,6.70
2023-04-08T18:22:22.801Z,6.60
2023-04-08T18:24:51.263Z,6.60
2023-04-08T18:27:19.634Z,6.60
2023-04-08T18:29:48.058Z,6.60
2023-04-08T18:32:16.708Z,6.50
2023-04-08T18:34:45.135Z,6.50
2023-04-08T18:37:16.912Z,6.50
2023-04-08T18:39:46.915Z,6.40
2023-04-08T18:42:15.460Z,6.50
2023-04-08T18:44:43.965Z,6.30
2023-04-08T18:47:12.375Z,6.30
2023-04-08T18:49:40.788Z,6.20
2023-04-08T18:52:09.477Z,6.20
2023-04-08T18:54:37.890Z,6.10
2023-04-08T18:57:07.936Z,6.10
2023-04-08T18:59:37.121Z,6.10
2023-04-08T19:02:05.702Z,6.10
2023-04-08T19:04:34.364Z,6.10
2023-04-08T19:07:02.972Z,6.10
2023-04-08T19:09:31.888Z,6.20
2023-04-08T19:12:00.338Z,6.10
2023-04-08T19:14:30.268Z,6.10
2023-04-08T19:16:58.772Z,6.10
2023-04-08T19:19:27.248Z,6.10
2023-04-08T19:21:55.712Z,6.00
2023-04-08T19:24:24.360Z,6.10
2023-04-08T19:26:53.151Z,6.00
2023-04-08T19:29:23.501Z,6.00
2023-04-08T19:31:53.928Z,5.90
2023-04-08T19:34:22.592Z,5.90
2023-04-08T19:36:51.337Z,5.80
2023-04-08T19:39:19.875Z,5.70
2023-04-08T19:41:48.340Z,5.70
2023-04-08T19:44:16.886Z,5.70
2023-04-08T19:46:45.410Z,5.70
2023-04-08T19:49:15.601Z,5.70
2023-04-08T19:51:44.017Z,5.70
2023-04-08T19:54:12.416Z,5.70
2023-04-08T19:56:41.067Z,5.70
2023-04-08T19:59:10.775Z,5.80
2023-04-08T20:01:40.417Z,5.70
2023-04-08T20:04:09.076Z,5.70
2023-04-08T20:06:39.161Z,5.70
2023-04-08T20:09:07.752Z,5.70
2023-04-08T20:11:36.320Z,5.70
2023-04-08T20:14:04.907Z,5.80
2023-04-08T20:16:34.111Z,5.80
2023-04-08T20:19:02.799Z,5.70
2023-04-08T20:21:31.247Z,5.70
2023-04-08T20:24:01.649Z,5.70
2023-04-08T20:26:30.250Z,5.60
2023-04-08T20:28:59.192Z,5.60
2023-04-08T20:31:28.067Z,5.60
2023-04-08T20:33:56.585Z,5.50
2023-04-08T20:36:25.428Z,5.50
2023-04-08T20:38:55.040Z,5.60
2023-04-08T20:41:27.072Z,5.60
2023-04-08T20:43:55.694Z,5.60
2023-04-08T20:46:24.489Z,5.70
2023-04-08T20:48:53.475Z,5.60
2023-04-08T20:51:22.651Z,5.60
2023-04-08T20:53:51.329Z,5.60
2023-04-08T20:56:19.890Z,5.60
2023-04-08T20:58:49.955Z,5.60
2023-04-08T21:01:18.719Z,5.60
2023-04-08T21:03:47.945Z,5.60
2023-04-08T21:06:18.103Z,5.50
2023-04-08T21:08:47.007Z,5.50
2023-04-08T21:11:15.716Z,5.50
2023-04-08T21:13:46.599Z,5.50
2023-04-08T21:16:18.232Z,5.50
2023-04-08T21:18:46.756Z,5.50
2023-04-08T21:21:15.276Z,5.50
2023-04-08T21:23:43.776Z,5.50
2023-04-08T21:26:13.402Z,5.50
2023-04-08T21:28:41.976Z,5.50
2023-04-08T21:31:10.733Z,5.60
2023-04-08T21:33:41.052Z,5.50
2023-04-08T21:36:09.666Z,5.50
2023-04-08T21:38:38.121Z,5.50
2023-04-08T21:41:06.685Z,5.50
2023-04-08T21:43:35.117Z,5.50
2023-04-08T21:46:03.517Z,5.50
2023-04-08T21:48:31.962Z,5.50
2023-04-08T21:51:02.073Z,5.50
2023-04-08T21:53:30.653Z,5.60
2023-04-08T21:55:59.075Z,5.60
2023-04-08T21:58:28.210Z,5.50
2023-04-08T22:00:56.657Z,5.50
2023-04-08T22:03:25.258Z,5.50
2023-04-08T22:05:53.831Z,5.40
2023-04-08T22:08:24.082Z,5.50
2023-04-08T22:10:53.259Z,5.50
2023-04-08T22:13:21.672Z,5.60
2023-04-08T22:15:50.100Z,5.60
2023-04-08T22:18:18.515Z,5.50
2023-04-08T22:20:46.941Z,5.50
2023-04-08T22:23:15.348Z,5.60
2023-04-08T22:25:45.150Z,5.60
2023-04-08T22:28:13.552Z,5.60
2023-04-08T22:30:42.023Z,5.60
2023-04-08T22:33:11.824Z,5.50
2023-04-08T22:35:40.551Z,5.50
2023-04-08T22:38:09.050Z,5.50
2023-04-08T22:40:37.705Z,5.50
2023-04-08T22:43:07.518Z,5.50
2023-04-08T22:45:37.709Z,5.60
2023-04-08T22:48:06.606Z,5.60
2023-04-08T22:50:35.153Z,5.60
2023-04-08T22:53:03.795Z,5.60
2023-04-08T22:55:32.824Z,5.60
2023-04-08T22:58:01.443Z,5.60
2023-04-08T23:00:31.816Z,5.60
2023-04-08T23:03:04.522Z,5.60
2023-04-08T23:05:33.277Z,5.60
2023-04-08T23:08:01.831Z,5.60
2023-04-08T23:10:30.263Z,5.70
2023-04-08T23:12:58.883Z,5.70
2023-04-08T23:15:27.355Z,5.60
2023-04-08T23:17:57.199Z,5.60
2023-04-08T23:20:25.977Z,5.60
2023-04-08T23:22:54.428Z,5.50
2023-04-08T23:25:22.864Z,5.50
2023-04-08T23:27:51.264Z,5.50
2023-04-08T23:30:19.871Z,5.50
2023-04-08T23:32:48.378Z,5.50
2023-04-08T23:35:18.260Z,5.40
2023-04-08T23:37:46.755Z,5.40
2023-04-08T23:40:15.577Z,5.30
2023-04-08T23:42:44.004Z,5.30
2023-04-08T23:45:12.686Z,5.30
2023-04-08T23:47:41.241Z,5.30
2023-04-08T23:50:10.651Z,5.30
2023-04-08T23:52:40.434Z,5.20
2023-04-08T23:55:09.429Z,5.20
2023-04-08T23:57:37.840Z,5.20
